sensor_id;sensor_type;location;lat;lon;timestamp;pressure;altitude;pressure_sealevel;temperature
74321;BMP280;62738;45.772;4.804;2023-02-11T00:00:41;101843.66;;;3.71
74321;BMP280;62738;45.772;4.804;2023-02-11T00:03:08;101849.63;;;3.61
74321;BMP280;62738;45.772;4.804;2023-02-11T00:05:35;101842.25;;;3.76
74321;BMP280;62738;45.772;4.804;2023-02-11T00:08:01;101839.50;;;3.85
74321;BMP280;62738;45.772;4.804;2023-02-11T00:10:28;101823.03;;;3.94
74321;BMP280;62738;45.772;4.804;2023-02-11T00:12:55;101834.03;;;3.67
74321;BMP280;62738;45.772;4.804;2023-02-11T00:15:21;101836.09;;;3.99
74321;BMP280;62738;45.772;4.804;2023-02-11T00:17:48;101840.94;;;3.62
74321;BMP280;62738;45.772;4.804;2023-02-11T00:20:15;101833.56;;;3.87
74321;BMP280;62738;45.772;4.804;2023-02-11T00:22:42;101833.25;;;3.75
74321;BMP280;62738;45.772;4.804;2023-02-11T00:25:09;101830.66;;;3.81
74321;BMP280;62738;45.772;4.804;2023-02-11T00:27:36;101821.91;;;4.01
74321;BMP280;62738;45.772;4.804;2023-02-11T00:30:03;101830.34;;;3.88
74321;BMP280;62738;45.772;4.804;2023-02-11T00:32:30;101833.09;;;3.79
74321;BMP280;62738;45.772;4.804;2023-02-11T00:34:57;101832.19;;;3.91
74321;BMP280;62738;45.772;4.804;2023-02-11T00:37:24;101829.13;;;3.80
74321;BMP280;62738;45.772;4.804;2023-02-11T00:39:51;101832.38;;;3.51
74321;BMP280;62738;45.772;4.804;2023-02-11T00:42:17;101836.78;;;3.67
74321;BMP280;62738;45.772;4.804;2023-02-11T00:44:44;101829.16;;;3.71
74321;BMP280;62738;45.772;4.804;2023-02-11T00:47:11;101829.13;;;3.80
74321;BMP280;62738;45.772;4.804;2023-02-11T00:49:37;101827.63;;;3.79
74321;BMP280;62738;45.772;4.804;2023-02-11T00:52:06;101824.75;;;3.55
74321;BMP280;62738;45.772;4.804;2023-02-11T00:54:33;101820.81;;;3.65
74321;BMP280;62738;45.772;4.804;2023-02-11T00:56:59;101818.06;;;3.47
74321;BMP280;62738;45.772;4.804;2023-02-11T00:59:26;101818.34;;;3.49
74321;BMP280;62738;45.772;4.804;2023-02-11T01:01:53;101808.13;;;3.49
74321;BMP280;62738;45.772;4.804;2023-02-11T01:04:20;101808.31;;;3.46
74321;BMP280;62738;45.772;4.804;2023-02-11T01:06:46;101810.00;;;3.34
74321;BMP280;62738;45.772;4.804;2023-02-11T01:09:13;101805.44;;;3.31
74321;BMP280;62738;45.772;4.804;2023-02-11T01:11:40;101808.78;;;3.44
74321;BMP280;62738;45.772;4.804;2023-02-11T01:14:06;101809.84;;;3.47
74321;BMP280;62738;45.772;4.804;2023-02-11T01:16:33;101807.22;;;3.62
74321;BMP280;62738;45.772;4.804;2023-02-11T01:19:00;101796.56;;;3.55
74321;BMP280;62738;45.772;4.804;2023-02-11T01:21:26;101793.19;;;3.51
74321;BMP280;62738;45.772;4.804;2023-02-11T01:23:53;101799.91;;;3.49
74321;BMP280;62738;45.772;4.804;2023-02-11T01:26:20;101789.13;;;3.28
74321;BMP280;62738;45.772;4.804;2023-02-11T01:28:46;101786.38;;;3.28
74321;BMP280;62738;45.772;4.804;2023-02-11T01:31:13;101789.56;;;3.44
74321;BMP280;62738;45.772;4.804;2023-02-11T01:33:40;101794.31;;;2.98
74321;BMP280;62738;45.772;4.804;2023-02-11T01:36:07;101786.53;;;2.88
74321;BMP280;62738;45.772;4.804;2023-02-11T01:38:35;101784.22;;;2.77
74321;BMP280;62738;45.772;4.804;2023-02-11T01:41:05;101769.75;;;2.58
74321;BMP280;62738;45.772;4.804;2023-02-11T01:43:38;101783.53;;;2.36
74321;BMP280;62738;45.772;4.804;2023-02-11T01:46:27;101779.75;;;2.43
74321;BMP280;62738;45.772;4.804;2023-02-11T01:49:10;101774.44;;;2.09
74321;BMP280;62738;45.772;4.804;2023-02-11T01:51:44;101774.00;;;2.77
74321;BMP280;62738;45.772;4.804;2023-02-11T01:54:14;101780.75;;;3.04
74321;BMP280;62738;45.772;4.804;2023-02-11T01:57:01;101771.75;;;3.12
74321;BMP280;62738;45.772;4.804;2023-02-11T01:59:58;101762.63;;;2.97
74321;BMP280;62738;45.772;4.804;2023-02-11T02:02:34;101763.06;;;3.14
74321;BMP280;62738;45.772;4.804;2023-02-11T02:05:23;101769.00;;;2.85
74321;BMP280;62738;45.772;4.804;2023-02-11T02:10:43;101762.59;;;2.79
74321;BMP280;62738;45.772;4.804;2023-02-11T02:13:11;101761.69;;;2.73
74321;BMP280;62738;45.772;4.804;2023-02-11T02:15:59;101762.91;;;2.99
74321;BMP280;62738;45.772;4.804;2023-02-11T02:41:20;101747.84;;;2.09
74321;BMP280;62738;45.772;4.804;2023-02-11T02:43:48;101753.31;;;2.09
74321;BMP280;62738;45.772;4.804;2023-02-11T02:46:19;101745.16;;;1.96
74321;BMP280;62738;45.772;4.804;2023-02-11T02:48:48;101738.81;;;1.99
74321;BMP280;62738;45.772;4.804;2023-02-11T02:57:34;101737.41;;;1.95
74321;BMP280;62738;45.772;4.804;2023-02-11T03:06:00;101716.59;;;2.65
74321;BMP280;62738;45.772;4.804;2023-02-11T03:08:53;101717.28;;;2.20
74321;BMP280;62738;45.772;4.804;2023-02-11T03:11:23;101715.69;;;2.00
74321;BMP280;62738;45.772;4.804;2023-02-11T03:13:51;101716.09;;;1.90
74321;BMP280;62738;45.772;4.804;2023-02-11T03:16:22;101712.91;;;1.82
74321;BMP280;62738;45.772;4.804;2023-02-11T03:19:14;101707.38;;;1.73
74321;BMP280;62738;45.772;4.804;2023-02-11T03:21:43;101701.72;;;1.67
74321;BMP280;62738;45.772;4.804;2023-02-11T03:24:16;101696.56;;;2.10
74321;BMP280;62738;45.772;4.804;2023-02-11T03:26:53;101694.00;;;2.24
74321;BMP280;62738;45.772;4.804;2023-02-11T03:32:22;101688.41;;;2.28
74321;BMP280;62738;45.772;4.804;2023-02-11T03:35:06;101688.25;;;2.40
74321;BMP280;62738;45.772;4.804;2023-02-11T03:37:38;101689.16;;;2.37
74321;BMP280;62738;45.772;4.804;2023-02-11T03:40:10;101684.63;;;1.94
74321;BMP280;62738;45.772;4.804;2023-02-11T03:42:50;101679.41;;;1.87
74321;BMP280;62738;45.772;4.804;2023-02-11T03:45:20;101688.56;;;1.84
74321;BMP280;62738;45.772;4.804;2023-02-11T03:47:51;101679.25;;;1.73
74321;BMP280;62738;45.772;4.804;2023-02-11T03:50:20;101686.22;;;1.43
74321;BMP280;62738;45.772;4.804;2023-02-11T03:52:48;101687.41;;;1.63
74321;BMP280;62738;45.772;4.804;2023-02-11T03:55:17;101695.00;;;1.37
74321;BMP280;62738;45.772;4.804;2023-02-11T03:57:44;101697.25;;;1.30
74321;BMP280;62738;45.772;4.804;2023-02-11T04:00:12;101694.41;;;1.64
74321;BMP280;62738;45.772;4.804;2023-02-11T04:02:40;101697.34;;;1.48
74321;BMP280;62738;45.772;4.804;2023-02-11T04:05:08;101689.88;;;1.70
74321;BMP280;62738;45.772;4.804;2023-02-11T04:07:35;101681.69;;;2.20
74321;BMP280;62738;45.772;4.804;2023-02-11T04:10:02;101687.81;;;1.93
74321;BMP280;62738;45.772;4.804;2023-02-11T04:12:29;101687.41;;;2.03
74321;BMP280;62738;45.772;4.804;2023-02-11T04:14:55;101679.81;;;2.08
74321;BMP280;62738;45.772;4.804;2023-02-11T04:17:22;101690.69;;;2.29
74321;BMP280;62738;45.772;4.804;2023-02-11T04:19:49;101687.78;;;2.24
74321;BMP280;62738;45.772;4.804;2023-02-11T04:22:15;101681.41;;;2.36
74321;BMP280;62738;45.772;4.804;2023-02-11T04:24:42;101690.22;;;2.31
74321;BMP280;62738;45.772;4.804;2023-02-11T04:27:09;101685.31;;;2.17
74321;BMP280;62738;45.772;4.804;2023-02-11T04:29:36;101686.75;;;1.90
74321;BMP280;62738;45.772;4.804;2023-02-11T04:32:03;101683.38;;;1.77
74321;BMP280;62738;45.772;4.804;2023-02-11T04:34:29;101690.69;;;1.49
74321;BMP280;62738;45.772;4.804;2023-02-11T04:36:56;101693.09;;;1.03
74321;BMP280;62738;45.772;4.804;2023-02-11T04:39:23;101696.69;;;1.13
74321;BMP280;62738;45.772;4.804;2023-02-11T04:41:49;101692.94;;;1.20
74321;BMP280;62738;45.772;4.804;2023-02-11T04:44:16;101689.38;;;1.32
74321;BMP280;62738;45.772;4.804;2023-02-11T04:46:43;101694.09;;;1.62
74321;BMP280;62738;45.772;4.804;2023-02-11T04:49:14;101696.53;;;1.38
74321;BMP280;62738;45.772;4.804;2023-02-11T04:51:42;101685.41;;;1.33
74321;BMP280;62738;45.772;4.804;2023-02-11T04:54:13;101684.47;;;1.05
74321;BMP280;62738;45.772;4.804;2023-02-11T04:56:40;101701.72;;;0.80
74321;BMP280;62738;45.772;4.804;2023-02-11T04:59:06;101689.53;;;0.94
74321;BMP280;62738;45.772;4.804;2023-02-11T05:01:33;101694.50;;;1.08
74321;BMP280;62738;45.772;4.804;2023-02-11T05:04:00;101688.41;;;1.26
74321;BMP280;62738;45.772;4.804;2023-02-11T05:06:27;101692.69;;;0.92
74321;BMP280;62738;45.772;4.804;2023-02-11T05:08:53;101692.88;;;1.32
74321;BMP280;62738;45.772;4.804;2023-02-11T05:11:22;101693.44;;;1.27
74321;BMP280;62738;45.772;4.804;2023-02-11T05:13:49;101685.09;;;1.09
74321;BMP280;62738;45.772;4.804;2023-02-11T05:16:16;101679.75;;;1.06
74321;BMP280;62738;45.772;4.804;2023-02-11T05:18:44;101679.03;;;0.92
74321;BMP280;62738;45.772;4.804;2023-02-11T05:21:15;101683.94;;;0.97
74321;BMP280;62738;45.772;4.804;2023-02-11T05:23:43;101680.75;;;0.99
74321;BMP280;62738;45.772;4.804;2023-02-11T05:26:11;101676.47;;;1.11
74321;BMP280;62738;45.772;4.804;2023-02-11T05:28:39;101669.59;;;1.06
74321;BMP280;62738;45.772;4.804;2023-02-11T05:31:06;101667.03;;;0.90
74321;BMP280;62738;45.772;4.804;2023-02-11T05:33:33;101653.63;;;1.26
74321;BMP280;62738;45.772;4.804;2023-02-11T05:36:01;101667.75;;;1.25
74321;BMP280;62738;45.772;4.804;2023-02-11T05:38:28;101661.03;;;1.48
74321;BMP280;62738;45.772;4.804;2023-02-11T05:40:55;101668.41;;;1.38
74321;BMP280;62738;45.772;4.804;2023-02-11T05:43:21;101679.75;;;1.27
74321;BMP280;62738;45.772;4.804;2023-02-11T05:45:48;101672.75;;;1.48
74321;BMP280;62738;45.772;4.804;2023-02-11T05:48:16;101673.13;;;1.37
74321;BMP280;62738;45.772;4.804;2023-02-11T05:50:43;101677.59;;;1.22
74321;BMP280;62738;45.772;4.804;2023-02-11T05:53:10;101677.44;;;1.48
74321;BMP280;62738;45.772;4.804;2023-02-11T05:55:37;101673.66;;;1.76
74321;BMP280;62738;45.772;4.804;2023-02-11T05:58:05;101669.31;;;1.35
74321;BMP280;62738;45.772;4.804;2023-02-11T06:00:33;101677.03;;;1.27
74321;BMP280;62738;45.772;4.804;2023-02-11T06:03:00;101680.81;;;1.52
74321;BMP280;62738;45.772;4.804;2023-02-11T06:05:27;101680.19;;;1.79
74321;BMP280;62738;45.772;4.804;2023-02-11T06:07:53;101687.91;;;1.71
74321;BMP280;62738;45.772;4.804;2023-02-11T06:10:20;101688.28;;;1.82
74321;BMP280;62738;45.772;4.804;2023-02-11T06:12:47;101683.91;;;2.03
74321;BMP280;62738;45.772;4.804;2023-02-11T06:15:14;101678.38;;;1.54
74321;BMP280;62738;45.772;4.804;2023-02-11T06:17:40;101684.84;;;1.69
74321;BMP280;62738;45.772;4.804;2023-02-11T06:20:08;101687.66;;;1.25
74321;BMP280;62738;45.772;4.804;2023-02-11T06:22:35;101684.53;;;1.14
74321;BMP280;62738;45.772;4.804;2023-02-11T06:25:02;101678.31;;;1.14
74321;BMP280;62738;45.772;4.804;2023-02-11T06:27:29;101679.44;;;0.69
74321;BMP280;62738;45.772;4.804;2023-02-11T06:29:56;101679.84;;;1.15
74321;BMP280;62738;45.772;4.804;2023-02-11T06:32:23;101681.25;;;1.19
74321;BMP280;62738;45.772;4.804;2023-02-11T06:35:08;101683.06;;;1.22
74321;BMP280;62738;45.772;4.804;2023-02-11T06:37:38;101681.84;;;1.01
74321;BMP280;62738;45.772;4.804;2023-02-11T06:40:05;101678.75;;;0.90
74321;BMP280;62738;45.772;4.804;2023-02-11T06:42:31;101683.03;;;0.79
74321;BMP280;62738;45.772;4.804;2023-02-11T06:44:58;101680.66;;;1.02
74321;BMP280;62738;45.772;4.804;2023-02-11T06:47:25;101681.72;;;1.05
74321;BMP280;62738;45.772;4.804;2023-02-11T06:49:52;101678.56;;;1.28
74321;BMP280;62738;45.772;4.804;2023-02-11T06:52:18;101685.09;;;1.09
74321;BMP280;62738;45.772;4.804;2023-02-11T06:54:45;101689.44;;;1.19
74321;BMP280;62738;45.772;4.804;2023-02-11T06:57:11;101689.56;;;1.16
74321;BMP280;62738;45.772;4.804;2023-02-11T06:59:38;101684.94;;;1.34
74321;BMP280;62738;45.772;4.804;2023-02-11T07:02:05;101680.34;;;1.84
74321;BMP280;62738;45.772;4.804;2023-02-11T07:04:32;101686.06;;;1.68
74321;BMP280;62738;45.772;4.804;2023-02-11T07:06:59;101691.59;;;1.02
74321;BMP280;62738;45.772;4.804;2023-02-11T07:09:25;101699.97;;;1.08
74321;BMP280;62738;45.772;4.804;2023-02-11T07:11:52;101704.38;;;1.27
74321;BMP280;62738;45.772;4.804;2023-02-11T07:14:18;101707.88;;;1.28
74321;BMP280;62738;45.772;4.804;2023-02-11T07:16:45;101711.81;;;1.05
74321;BMP280;62738;45.772;4.804;2023-02-11T07:19:12;101723.69;;;0.77
74321;BMP280;62738;45.772;4.804;2023-02-11T07:21:38;101720.19;;;0.89
74321;BMP280;62738;45.772;4.804;2023-02-11T07:24:07;101728.75;;;1.00
74321;BMP280;62738;45.772;4.804;2023-02-11T07:26:36;101725.16;;;1.25
74321;BMP280;62738;45.772;4.804;2023-02-11T07:29:03;101733.25;;;1.50
74321;BMP280;62738;45.772;4.804;2023-02-11T07:31:30;101735.66;;;1.26
74321;BMP280;62738;45.772;4.804;2023-02-11T07:33:59;101735.72;;;1.14
74321;BMP280;62738;45.772;4.804;2023-02-11T07:36:27;101742.84;;;1.11
74321;BMP280;62738;45.772;4.804;2023-02-11T07:38:54;101743.47;;;1.15
74321;BMP280;62738;45.772;4.804;2023-02-11T07:41:22;101748.38;;;1.20
74321;BMP280;62738;45.772;4.804;2023-02-11T07:43:49;101757.09;;;1.71
74321;BMP280;62738;45.772;4.804;2023-02-11T07:46:22;101757.59;;;1.79
74321;BMP280;62738;45.772;4.804;2023-02-11T07:48:50;101752.63;;;2.36
74321;BMP280;62738;45.772;4.804;2023-02-11T07:51:20;101756.03;;;2.58
74321;BMP280;62738;45.772;4.804;2023-02-11T07:53:48;101764.22;;;2.49
74321;BMP280;62738;45.772;4.804;2023-02-11T07:56:16;101772.63;;;2.55
74321;BMP280;62738;45.772;4.804;2023-02-11T07:58:43;101770.31;;;2.44
74321;BMP280;62738;45.772;4.804;2023-02-11T08:01:13;101770.72;;;2.24
74321;BMP280;62738;45.772;4.804;2023-02-11T08:03:40;101763.97;;;2.74
74321;BMP280;62738;45.772;4.804;2023-02-11T08:06:13;101761.53;;;2.86
74321;BMP280;62738;45.772;4.804;2023-02-11T08:08:40;101763.66;;;2.82
74321;BMP280;62738;45.772;4.804;2023-02-11T08:11:10;101773.28;;;2.95
74321;BMP280;62738;45.772;4.804;2023-02-11T08:13:37;101763.69;;;3.00
74321;BMP280;62738;45.772;4.804;2023-02-11T08:16:04;101772.97;;;3.11
74321;BMP280;62738;45.772;4.804;2023-02-11T08:18:32;101777.69;;;3.29
74321;BMP280;62738;45.772;4.804;2023-02-11T08:21:06;101776.31;;;3.34
74321;BMP280;62738;45.772;4.804;2023-02-11T08:23:38;101769.91;;;2.82
74321;BMP280;62738;45.772;4.804;2023-02-11T08:26:07;101780.75;;;3.04
74321;BMP280;62738;45.772;4.804;2023-02-11T08:28:36;101773.84;;;2.54
74321;BMP280;62738;45.772;4.804;2023-02-11T08:31:07;101781.03;;;2.78
74321;BMP280;62738;45.772;4.804;2023-02-11T08:33:35;101786.34;;;2.82
74321;BMP280;62738;45.772;4.804;2023-02-11T08:36:11;101782.09;;;3.08
74321;BMP280;62738;45.772;4.804;2023-02-11T08:38:38;101777.44;;;3.78
74321;BMP280;62738;45.772;4.804;2023-02-11T08:41:05;101776.41;;;3.67
74321;BMP280;62738;45.772;4.804;2023-02-11T08:43:32;101772.78;;;3.42
74321;BMP280;62738;45.772;4.804;2023-02-11T08:45:59;101763.03;;;3.41
74321;BMP280;62738;45.772;4.804;2023-02-11T08:48:27;101778.00;;;3.31
74321;BMP280;62738;45.772;4.804;2023-02-11T08:50:55;101777.03;;;3.53
74321;BMP280;62738;45.772;4.804;2023-02-11T08:53:22;101776.50;;;3.81
74321;BMP280;62738;45.772;4.804;2023-02-11T08:55:53;101778.56;;;3.63
74321;BMP280;62738;45.772;4.804;2023-02-11T08:58:21;101779.41;;;3.87
74321;BMP280;62738;45.772;4.804;2023-02-11T09:00:48;101779.63;;;3.98
74321;BMP280;62738;45.772;4.804;2023-02-11T09:03:15;101779.25;;;4.24
74321;BMP280;62738;45.772;4.804;2023-02-11T09:05:46;101778.03;;;4.25
74321;BMP280;62738;45.772;4.804;2023-02-11T09:08:13;101777.63;;;4.08
74321;BMP280;62738;45.772;4.804;2023-02-11T09:10:40;101779.09;;;4.27
74321;BMP280;62738;45.772;4.804;2023-02-11T09:13:07;101768.78;;;4.37
74321;BMP280;62738;45.772;4.804;2023-02-11T09:15:34;101769.09;;;4.06
74321;BMP280;62738;45.772;4.804;2023-02-11T09:18:02;101767.41;;;3.99
74321;BMP280;62738;45.772;4.804;2023-02-11T09:20:30;101773.28;;;4.25
74321;BMP280;62738;45.772;4.804;2023-02-11T09:22:58;101773.44;;;4.22
74321;BMP280;62738;45.772;4.804;2023-02-11T09:25:25;101779.56;;;4.16
74321;BMP280;62738;45.772;4.804;2023-02-11T09:27:52;101770.72;;;4.45
74321;BMP280;62738;45.772;4.804;2023-02-11T09:30:19;101768.44;;;4.44
74321;BMP280;62738;45.772;4.804;2023-02-11T09:32:46;101776.84;;;4.64
74321;BMP280;62738;45.772;4.804;2023-02-11T09:35:13;101775.63;;;5.04
74321;BMP280;62738;45.772;4.804;2023-02-11T09:37:40;101768.88;;;4.90
74321;BMP280;62738;45.772;4.804;2023-02-11T09:40:07;101767.56;;;5.00
74321;BMP280;62738;45.772;4.804;2023-02-11T09:45:25;101766.78;;;4.85
74321;BMP280;62738;45.772;4.804;2023-02-11T09:47:56;101759.16;;;4.80
74321;BMP280;62738;45.772;4.804;2023-02-11T09:50:30;101761.88;;;5.04
74321;BMP280;62738;45.772;4.804;2023-02-11T09:53:30;101767.59;;;5.15
74321;BMP280;62738;45.772;4.804;2023-02-11T09:55:56;101776.97;;;5.23
74321;BMP280;62738;45.772;4.804;2023-02-11T09:58:34;101778.97;;;5.66
74321;BMP280;62738;45.772;4.804;2023-02-11T10:06:43;101772.53;;;5.55
74321;BMP280;62738;45.772;4.804;2023-02-11T10:22:59;101782.13;;;6.09
74321;BMP280;62738;45.772;4.804;2023-02-11T10:25:33;101781.72;;;6.16
74321;BMP280;62738;45.772;4.804;2023-02-11T10:28:14;101777.06;;;6.43
74321;BMP280;62738;45.772;4.804;2023-02-11T10:30:51;101783.13;;;6.26
74321;BMP280;62738;45.772;4.804;2023-02-11T10:33:30;101786.41;;;6.30
74321;BMP280;62738;45.772;4.804;2023-02-11T10:35:59;101786.97;;;6.34
74321;BMP280;62738;45.772;4.804;2023-02-11T10:38:26;101785.88;;;6.26
74321;BMP280;62738;45.772;4.804;2023-02-11T10:40:53;101794.91;;;6.47
74321;BMP280;62738;45.772;4.804;2023-02-11T10:43:23;101787.75;;;6.55
74321;BMP280;62738;45.772;4.804;2023-02-11T10:45:53;101789.53;;;6.58
74321;BMP280;62738;45.772;4.804;2023-02-11T10:53:34;101788.22;;;6.54
74321;BMP280;62738;45.772;4.804;2023-02-11T10:56:01;101782.72;;;6.54
74321;BMP280;62738;45.772;4.804;2023-02-11T10:58:43;101787.41;;;6.68
74321;BMP280;62738;45.772;4.804;2023-02-11T11:01:10;101785.31;;;6.83
74321;BMP280;62738;45.772;4.804;2023-02-11T11:03:51;101781.81;;;6.42
74321;BMP280;62738;45.772;4.804;2023-02-11T11:06:31;101773.94;;;6.75
74321;BMP280;62738;45.772;4.804;2023-02-11T11:08:59;101776.34;;;6.88
74321;BMP280;62738;45.772;4.804;2023-02-11T11:11:26;101756.66;;;7.01
74321;BMP280;62738;45.772;4.804;2023-02-11T11:13:59;101755.13;;;7.26
74321;BMP280;62738;45.772;4.804;2023-02-11T11:24:17;101745.19;;;7.39
74321;BMP280;62738;45.772;4.804;2023-02-11T11:26:59;101736.19;;;7.81
74321;BMP280;62738;45.772;4.804;2023-02-11T11:29:35;101740.59;;;7.62
74321;BMP280;62738;45.772;4.804;2023-02-11T11:32:05;101729.63;;;7.42
74321;BMP280;62738;45.772;4.804;2023-02-11T11:34:39;101720.16;;;7.48
74321;BMP280;62738;45.772;4.804;2023-02-11T11:37:22;101720.72;;;7.58
74321;BMP280;62738;45.772;4.804;2023-02-11T11:42:28;101712.22;;;7.62
74321;BMP280;62738;45.772;4.804;2023-02-11T11:48:12;101694.69;;;7.76
74321;BMP280;62738;45.772;4.804;2023-02-11T11:50:47;101692.69;;;7.76
74321;BMP280;62738;45.772;4.804;2023-02-11T11:53:34;101684.66;;;7.78
74321;BMP280;62738;45.772;4.804;2023-02-11T11:56:05;101680.91;;;7.81
74321;BMP280;62738;45.772;4.804;2023-02-11T11:58:34;101678.94;;;7.87
74321;BMP280;62738;45.772;4.804;2023-02-11T12:26:14;101645.13;;;8.20
74321;BMP280;62738;45.772;4.804;2023-02-11T12:55:08;101598.16;;;8.54
74321;BMP280;62738;45.772;4.804;2023-02-11T12:57:17;101592.09;;;8.72
74321;BMP280;62738;45.772;4.804;2023-02-11T13:03:00;101587.53;;;8.91
74321;BMP280;62738;45.772;4.804;2023-02-11T13:05:42;101588.06;;;9.01
74321;BMP280;62738;45.772;4.804;2023-02-11T13:10:39;101578.53;;;8.85
74321;BMP280;62738;45.772;4.804;2023-02-11T13:13:18;101579.75;;;9.01
74321;BMP280;62738;45.772;4.804;2023-02-11T13:19:05;101582.50;;;9.06
74321;BMP280;62738;45.772;4.804;2023-02-11T13:21:47;101572.97;;;8.91
74321;BMP280;62738;45.772;4.804;2023-02-11T13:27:10;101556.59;;;8.93
74321;BMP280;62738;45.772;4.804;2023-02-11T13:35:35;101547.97;;;9.19
74321;BMP280;62738;45.772;4.804;2023-02-11T13:41:19;101533.56;;;9.31
74321;BMP280;62738;45.772;4.804;2023-02-11T13:44:00;101534.28;;;9.43
74321;BMP280;62738;45.772;4.804;2023-02-11T13:46:45;101527.78;;;9.35
74321;BMP280;62738;45.772;4.804;2023-02-11T13:49:21;101523.69;;;9.47
74321;BMP280;62738;45.772;4.804;2023-02-11T13:51:49;101521.06;;;9.66
74321;BMP280;62738;45.772;4.804;2023-02-11T13:54:45;101529.50;;;9.43
74321;BMP280;62738;45.772;4.804;2023-02-11T14:11:08;101508.88;;;9.80
74321;BMP280;62738;45.772;4.804;2023-02-11T14:16:16;101511.34;;;9.83
74321;BMP280;62738;45.772;4.804;2023-02-11T14:19:03;101498.53;;;9.80
74321;BMP280;62738;45.772;4.804;2023-02-11T14:21:37;101498.25;;;9.84
74321;BMP280;62738;45.772;4.804;2023-02-11T14:26:52;101507.53;;;9.92
74321;BMP280;62738;45.772;4.804;2023-02-11T14:43:26;101508.72;;;9.67
74321;BMP280;62738;45.772;4.804;2023-02-11T14:45:55;101511.75;;;9.63
74321;BMP280;62738;45.772;4.804;2023-02-11T14:48:29;101503.56;;;9.82
74321;BMP280;62738;45.772;4.804;2023-02-11T14:51:00;101507.84;;;9.83
74321;BMP280;62738;45.772;4.804;2023-02-11T14:53:30;101502.41;;;10.07
74321;BMP280;62738;45.772;4.804;2023-02-11T14:55:57;101504.78;;;9.86
74321;BMP280;62738;45.772;4.804;2023-02-11T14:58:29;101506.44;;;9.71
74321;BMP280;62738;45.772;4.804;2023-02-11T15:01:03;101505.13;;;9.31
74321;BMP280;62738;45.772;4.804;2023-02-11T15:03:37;101505.88;;;9.37
74321;BMP280;62738;45.772;4.804;2023-02-11T15:06:20;101514.41;;;9.44
74321;BMP280;62738;45.772;4.804;2023-02-11T15:08:50;101513.59;;;9.49
74321;BMP280;62738;45.772;4.804;2023-02-11T15:11:20;101502.25;;;9.47
74321;BMP280;62738;45.772;4.804;2023-02-11T15:13:48;101504.59;;;9.38
74321;BMP280;62738;45.772;4.804;2023-02-11T15:16:18;101511.56;;;9.56
74321;BMP280;62738;45.772;4.804;2023-02-11T15:18:49;101510.66;;;9.31
74321;BMP280;62738;45.772;4.804;2023-02-11T15:21:35;101508.41;;;9.24
74321;BMP280;62738;45.772;4.804;2023-02-11T15:24:17;101508.66;;;9.26
74321;BMP280;62738;45.772;4.804;2023-02-11T15:29:36;101513.72;;;9.27
74321;BMP280;62738;45.772;4.804;2023-02-11T15:32:15;101509.97;;;9.19
74321;BMP280;62738;45.772;4.804;2023-02-11T15:34:43;101515.25;;;9.17
74321;BMP280;62738;45.772;4.804;2023-02-11T15:37:19;101509.19;;;9.24
74321;BMP280;62738;45.772;4.804;2023-02-11T15:39:46;101509.94;;;9.25
74321;BMP280;62738;45.772;4.804;2023-02-11T15:42:21;101497.84;;;9.22
74321;BMP280;62738;45.772;4.804;2023-02-11T15:45:07;101510.13;;;9.43
74321;BMP280;62738;45.772;4.804;2023-02-11T15:47:34;101501.81;;;9.43
74321;BMP280;62738;45.772;4.804;2023-02-11T15:50:01;101502.63;;;9.22
74321;BMP280;62738;45.772;4.804;2023-02-11T15:52:28;101513.22;;;9.23
74321;BMP280;62738;45.772;4.804;2023-02-11T15:54:56;101509.69;;;9.23
74321;BMP280;62738;45.772;4.804;2023-02-11T15:57:26;101500.09;;;9.29
74321;BMP280;62738;45.772;4.804;2023-02-11T15:59:53;101499.34;;;9.29
74321;BMP280;62738;45.772;4.804;2023-02-11T16:02:33;101495.41;;;9.07
74321;BMP280;62738;45.772;4.804;2023-02-11T16:05:06;101506.16;;;9.28
74321;BMP280;62738;45.772;4.804;2023-02-11T16:07:39;101498.41;;;9.15
74321;BMP280;62738;45.772;4.804;2023-02-11T16:10:30;101492.91;;;9.09
74321;BMP280;62738;45.772;4.804;2023-02-11T16:18:01;101505.63;;;9.29
74321;BMP280;62738;45.772;4.804;2023-02-11T16:20:29;101502.16;;;9.18
74321;BMP280;62738;45.772;4.804;2023-02-11T16:22:56;101501.22;;;9.09
74321;BMP280;62738;45.772;4.804;2023-02-11T16:25:23;101495.41;;;9.07
74321;BMP280;62738;45.772;4.804;2023-02-11T16:27:53;101501.69;;;9.14
74321;BMP280;62738;45.772;4.804;2023-02-11T16:30:26;101502.00;;;8.88
74321;BMP280;62738;45.772;4.804;2023-02-11T16:32:54;101496.72;;;8.90
74321;BMP280;62738;45.772;4.804;2023-02-11T16:35:21;101506.53;;;8.91
74321;BMP280;62738;45.772;4.804;2023-02-11T16:37:47;101509.81;;;8.89
74321;BMP280;62738;45.772;4.804;2023-02-11T16:40:15;101507.81;;;8.84
74321;BMP280;62738;45.772;4.804;2023-02-11T16:42:41;101513.56;;;8.92
74321;BMP280;62738;45.772;4.804;2023-02-11T16:45:08;101515.34;;;8.89
74321;BMP280;62738;45.772;4.804;2023-02-11T16:47:35;101514.38;;;8.70
74321;BMP280;62738;45.772;4.804;2023-02-11T16:50:10;101516.91;;;8.68
74321;BMP280;62738;45.772;4.804;2023-02-11T16:52:44;101512.59;;;8.73
74321;BMP280;62738;45.772;4.804;2023-02-11T16:55:12;101516.69;;;8.49
74321;BMP280;62738;45.772;4.804;2023-02-11T16:57:39;101516.16;;;8.45
74321;BMP280;62738;45.772;4.804;2023-02-11T17:00:06;101523.97;;;8.41
74321;BMP280;62738;45.772;4.804;2023-02-11T17:02:35;101522.69;;;8.42
74321;BMP280;62738;45.772;4.804;2023-02-11T17:05:07;101522.47;;;8.51
74321;BMP280;62738;45.772;4.804;2023-02-11T17:07:37;101526.22;;;8.37
74321;BMP280;62738;45.772;4.804;2023-02-11T17:10:12;101528.00;;;8.40
74321;BMP280;62738;45.772;4.804;2023-02-11T17:12:39;101527.47;;;8.47
74321;BMP280;62738;45.772;4.804;2023-02-11T17:15:06;101532.75;;;8.28
74321;BMP280;62738;45.772;4.804;2023-02-11T17:17:33;101527.72;;;8.21
74321;BMP280;62738;45.772;4.804;2023-02-11T17:19:59;101532.25;;;8.19
74321;BMP280;62738;45.772;4.804;2023-02-11T17:22:26;101530.22;;;8.42
74321;BMP280;62738;45.772;4.804;2023-02-11T17:24:52;101527.97;;;8.29
74321;BMP280;62738;45.772;4.804;2023-02-11T17:27:22;101534.75;;;8.22
74321;BMP280;62738;45.772;4.804;2023-02-11T17:29:49;101529.72;;;8.26
74321;BMP280;62738;45.772;4.804;2023-02-11T17:32:15;101531.75;;;8.15
74321;BMP280;62738;45.772;4.804;2023-02-11T17:34:42;101533.75;;;8.09
74321;BMP280;62738;45.772;4.804;2023-02-11T17:37:09;101533.22;;;8.05
74321;BMP280;62738;45.772;4.804;2023-02-11T17:39:37;101534.97;;;7.97